Time;durP1;ratioP1;P1;durP2;ratioP2;P2;SDS_P1;SDS_P2;PMS_P1;PMS_P2;Temp;Humidity;BMP_temperature;BMP_pressure;BME280_temperature;BME280_humidity;BME280_pressure;Samples;Min_cycle;Max_cycle;Signal;HPM_P1;HPM_P2
2021/06/29 00:02:23;;;;;;;;;;;;;;;18.24;70.92;100029.06;1627559;87;20128;-87
2021/06/29 00:04:48;;;;;;;;;;;;;;;18.20;70.88;100020.23;1625991;86;20118;-87
2021/06/29 00:07:14;;;;;;;;;;;;;;;18.15;71.17;100020.72;1626988;87;20144;-87
2021/06/29 00:09:39;;;;;;;;;;;;;;;18.11;71.33;100015.39;1628560;87;20136;-86
2021/06/29 00:12:06;;;;;;;;;;;;;;;18.07;71.35;100016.73;1628007;86;20433;-86
2021/06/29 00:14:31;;;;;;;;;;;;;;;18.04;71.34;100011.22;1628480;86;20107;-86
2021/06/29 00:16:57;;;;;;;;;;;;;;;18.00;71.12;100014.41;1628904;87;20129;-86
2021/06/29 00:19:23;;;;;;;;;;;;;;;17.96;70.97;100015.20;1623748;87;20137;-86
2021/06/29 00:21:49;;;;;;;;;;;;;;;17.96;71.28;100015.71;1627077;87;20187;-86
2021/06/29 00:24:16;;;;;;;;;;;;;;;17.95;71.06;100008.72;1627691;87;20141;-86
2021/06/29 00:26:42;;;;;;;;;;;;;;;17.93;71.83;100005.36;1626517;87;20126;-86
2021/06/29 00:29:08;;;;;;;;;;;;;;;17.89;71.94;100004.04;1632252;87;20110;-87
2021/06/29 00:31:34;;;;;;;;;;;;;;;17.87;71.61;100012.70;1626111;87;20140;-86
2021/06/29 00:34:00;;;;;;;;;;;;;;;17.84;72.04;100003.72;1628365;87;20140;-86
2021/06/29 00:36:26;;;;;;;;;;;;;;;17.80;71.96;100001.86;1630808;87;20150;-86
2021/06/29 00:38:51;;;;;;;;;;;;;;;17.78;72.05;99992.70;1628613;86;20478;-86
2021/06/29 00:41:17;;;;;;;;;;;;;;;17.74;71.99;99993.17;1623913;86;20106;-86
2021/06/29 00:43:47;;;;;;;;;;;;;;;17.72;72.01;99991.98;1629432;87;20183;-86
2021/06/29 00:46:13;;;;;;;;;;;;;;;17.69;72.23;99989.64;1625011;87;20103;-86
2021/06/29 00:48:39;;;;;;;;;;;;;;;17.65;72.05;99985.65;1628023;87;20534;-86
2021/06/29 00:51:05;;;;;;;;;;;;;;;17.63;72.18;99983.63;1626601;87;20137;-86
2021/06/29 00:53:31;;;;;;;;;;;;;;;17.61;72.41;99983.48;1629935;87;20441;-86
2021/06/29 00:55:57;;;;;;;;;;;;;;;17.56;72.59;99977.30;1631229;87;20126;-86
2021/06/29 00:58:23;;;;;;;;;;;;;;;17.51;72.80;99974.30;1627260;86;20108;-86
2021/06/29 01:00:51;;;;;;;;;;;;;;;17.46;72.90;99975.28;1629342;86;20130;-86
2021/06/29 01:03:16;;;;;;;;;;;;;;;17.40;72.72;99982.60;1623648;85;20327;-87
2021/06/29 01:05:43;;;;;;;;;;;;;;;17.38;72.62;99984.11;1627256;87;20407;-87
2021/06/29 01:08:08;;;;;;;;;;;;;;;17.35;72.71;99973.77;1625555;87;20138;-87
2021/06/29 01:10:34;;;;;;;;;;;;;;;17.33;72.68;99966.42;1635467;87;20125;-87
2021/06/29 01:13:00;;;;;;;;;;;;;;;17.32;72.81;99966.09;1624581;86;20404;-88
2021/06/29 01:15:26;;;;;;;;;;;;;;;17.30;72.88;99972.08;1631334;87;20129;-87
2021/06/29 01:17:54;;;;;;;;;;;;;;;17.28;73.09;99968.77;1624037;87;20145;-87
2021/06/29 01:20:29;;;;;;;;;;;;;;;17.24;73.03;99964.25;1624901;87;20147;-87
2021/06/29 01:23:01;;;;;;;;;;;;;;;17.19;73.00;99962.56;1631813;87;20400;-86
2021/06/29 01:25:28;;;;;;;;;;;;;;;17.16;73.20;99964.72;1628842;87;20226;-87
2021/06/29 01:28:04;;;;;;;;;;;;;;;17.13;73.20;99957.88;1628308;87;20173;-87
2021/06/29 01:32:49;;;;;;;;;;;;;;;17.09;73.08;99954.70;1629340;87;20124;-87
2021/06/29 01:35:15;;;;;;;;;;;;;;;17.07;73.21;99951.86;1630456;87;20424;-87
2021/06/29 01:37:41;;;;;;;;;;;;;;;17.03;73.24;99948.69;1627809;87;20171;-87
2021/06/29 01:42:39;;;;;;;;;;;;;;;16.96;73.03;99946.34;1626394;87;20158;-86
2021/06/29 01:45:06;;;;;;;;;;;;;;;16.93;73.53;99943.99;1627174;86;20369;-86
2021/06/29 01:47:50;;;;;;;;;;;;;;;16.89;73.62;99951.98;1634965;87;20114;-87
2021/06/29 01:50:11;;;;;;;;;;;;;;;16.84;73.77;99947.11;1626998;87;20139;-87
2021/06/29 01:52:37;;;;;;;;;;;;;;;16.82;73.75;99938.47;1630363;87;20136;-86
2021/06/29 01:55:05;;;;;;;;;;;;;;;16.79;73.91;99938.79;1624661;86;20549;-87
2021/06/29 01:57:30;;;;;;;;;;;;;;;16.78;74.01;99942.93;1628463;86;20118;-86
2021/06/29 01:59:56;;;;;;;;;;;;;;;16.75;74.16;99948.58;1635633;87;20102;-86
2021/06/29 02:02:22;;;;;;;;;;;;;;;16.68;74.18;99943.02;1627596;86;20415;-86
2021/06/29 02:04:47;;;;;;;;;;;;;;;16.66;74.15;99942.36;1624657;88;20136;-86
2021/06/29 02:07:13;;;;;;;;;;;;;;;16.65;74.57;99939.37;1625988;87;20140;-86
2021/06/29 02:09:39;;;;;;;;;;;;;;;16.63;74.43;99942.69;1627173;87;20109;-86
2021/06/29 02:12:06;;;;;;;;;;;;;;;16.62;74.58;99940.52;1624528;88;20161;-85
2021/06/29 02:14:32;;;;;;;;;;;;;;;16.60;75.03;99938.50;1625552;87;20883;-86
2021/06/29 02:16:58;;;;;;;;;;;;;;;16.58;75.01;99942.31;1639051;87;20126;-86
2021/06/29 02:19:24;;;;;;;;;;;;;;;16.55;74.99;99945.29;1638695;87;20874;-86
2021/06/29 02:21:50;;;;;;;;;;;;;;;16.52;74.89;99946.47;1638394;87;20137;-86
2021/06/29 02:24:16;;;;;;;;;;;;;;;16.50;74.93;99951.61;1638062;87;20103;-86
2021/06/29 02:26:41;;;;;;;;;;;;;;;16.46;75.05;99948.93;1639536;87;20097;-86
2021/06/29 02:29:07;;;;;;;;;;;;;;;16.41;75.06;99940.90;1641834;87;20425;-86
2021/06/29 02:31:32;;;;;;;;;;;;;;;16.41;74.94;99942.23;1640358;87;20166;-86
2021/06/29 02:33:58;;;;;;;;;;;;;;;16.41;75.08;99945.39;1638489;87;20097;-86
2021/06/29 02:36:24;;;;;;;;;;;;;;;16.38;75.20;99951.03;1638740;87;20436;-86
2021/06/29 02:38:49;;;;;;;;;;;;;;;16.36;75.52;99950.38;1626246;87;20425;-86
2021/06/29 02:41:15;;;;;;;;;;;;;;;16.31;75.51;99944.17;1625204;88;20140;-86
2021/06/29 02:43:42;;;;;;;;;;;;;;;16.31;75.45;99941.51;1624919;88;20144;-86
2021/06/29 02:46:08;;;;;;;;;;;;;;;16.29;75.94;99943.52;1625055;88;20164;-86
2021/06/29 02:48:34;;;;;;;;;;;;;;;16.29;75.86;99941.35;1626507;87;20132;-86
2021/06/29 02:51:00;;;;;;;;;;;;;;;16.26;75.65;99939.83;1626032;87;20210;-86
2021/06/29 02:53:25;;;;;;;;;;;;;;;16.25;75.60;99934.15;1628711;87;20521;-86
2021/06/29 02:55:51;;;;;;;;;;;;;;;16.24;75.98;99932.48;1626808;88;20170;-86
2021/06/29 02:58:17;;;;;;;;;;;;;;;16.22;76.06;99926.48;1634524;87;20115;-86
2021/06/29 03:00:42;;;;;;;;;;;;;;;16.20;76.15;99924.48;1635546;87;20120;-86
2021/06/29 03:03:08;;;;;;;;;;;;;;;16.18;76.17;99927.28;1625177;87;20415;-86
2021/06/29 03:05:34;;;;;;;;;;;;;;;16.16;76.46;99928.46;1625091;88;20137;-86
2021/06/29 03:07:59;;;;;;;;;;;;;;;16.14;76.37;99930.44;1633169;87;20126;-86
2021/06/29 03:10:25;;;;;;;;;;;;;;;16.12;76.46;99935.06;1638593;87;20141;-86
2021/06/29 03:12:51;;;;;;;;;;;;;;;16.12;75.87;99935.92;1639458;86;20437;-86
2021/06/29 03:15:17;;;;;;;;;;;;;;;16.12;76.40;99935.92;1639467;87;20454;-86
2021/06/29 03:17:42;;;;;;;;;;;;;;;16.13;76.55;99936.26;1638678;87;20173;-86
2021/06/29 03:20:10;;;;;;;;;;;;;;;16.12;76.81;99933.27;1639546;87;20193;-86
2021/06/29 03:22:36;;;;;;;;;;;;;;;16.10;77.17;99936.56;1636539;87;20137;-86
2021/06/29 03:25:02;;;;;;;;;;;;;;;16.09;76.66;99935.38;1604981;88;20128;-86
2021/06/29 03:27:27;;;;;;;;;;;;;;;16.09;77.00;99939.37;1624863;88;20450;-86
2021/06/29 03:29:53;;;;;;;;;;;;;;;16.09;77.21;99940.23;1624999;88;20144;-86
2021/06/29 03:32:19;;;;;;;;;;;;;;;16.10;77.30;99942.39;1633752;87;20134;-86
2021/06/29 03:34:44;;;;;;;;;;;;;;;16.08;77.14;99941.20;1640320;86;20198;-85
2021/06/29 03:37:10;;;;;;;;;;;;;;;16.09;77.20;99940.70;1638115;87;20113;-86
2021/06/29 03:39:36;;;;;;;;;;;;;;;16.08;77.17;99941.20;1624977;88;20137;-86
2021/06/29 03:42:02;;;;;;;;;;;;;;;16.08;76.77;99941.20;1625191;87;20164;-85
2021/06/29 03:44:28;;;;;;;;;;;;;;;16.11;77.19;99933.41;1625332;87;20108;-86
2021/06/29 03:46:53;;;;;;;;;;;;;;;16.12;77.06;99929.27;1625775;87;20120;-86
2021/06/29 03:49:19;;;;;;;;;;;;;;;16.13;77.25;99927.44;1638065;87;20166;-86
2021/06/29 03:51:45;;;;;;;;;;;;;;;16.14;77.37;99924.61;1629842;87;20128;-86
2021/06/29 03:54:11;;;;;;;;;;;;;;;16.16;77.38;99919.14;1624810;88;20121;-86
2021/06/29 03:56:37;;;;;;;;;;;;;;;16.17;77.26;99927.46;1624877;88;20454;-85
2021/06/29 03:59:06;;;;;;;;;;;;;;;16.20;77.33;99930.31;1625063;88;20128;-86
2021/06/29 04:01:32;;;;;;;;;;;;;;;16.23;77.53;99931.33;1625401;87;20135;-86
2021/06/29 04:03:59;;;;;;;;;;;;;;;16.25;77.39;99928.00;1628017;87;20449;-86
2021/06/29 04:06:27;;;;;;;;;;;;;;;16.28;77.54;99929.02;1640099;87;20141;-86
2021/06/29 04:08:55;;;;;;;;;;;;;;;16.31;77.80;99934.85;1638018;87;20111;-86
2021/06/29 04:11:21;;;;;;;;;;;;;;;16.33;77.41;99935.55;1631775;86;20144;-85
2021/06/29 04:13:47;;;;;;;;;;;;;;;16.35;77.72;99931.38;1625056;87;20124;-86
2021/06/29 04:16:13;;;;;;;;;;;;;;;16.37;77.64;99938.72;1624927;88;20448;-86
2021/06/29 04:18:39;;;;;;;;;;;;;;;16.41;77.87;99946.72;1626471;87;20134;-85
2021/06/29 04:21:05;;;;;;;;;;;;;;;16.44;78.12;99949.08;1632166;86;20185;-86
2021/06/29 04:23:30;;;;;;;;;;;;;;;16.47;77.89;99948.76;1637057;86;20425;-86
2021/06/29 04:25:56;;;;;;;;;;;;;;;16.51;77.96;99953.27;1632074;87;20109;-86
2021/06/29 04:28:22;;;;;;;;;;;;;;;16.55;78.18;99950.62;1640342;87;20125;-86
2021/06/29 04:30:48;;;;;;;;;;;;;;;16.59;78.07;99955.99;1639509;87;20487;-86
2021/06/29 04:33:14;;;;;;;;;;;;;;;16.63;78.16;99952.84;1631905;87;20174;-86
2021/06/29 04:35:40;;;;;;;;;;;;;;;16.68;78.16;99954.17;1630419;87;20164;-86
2021/06/29 04:38:05;;;;;;;;;;;;;;;16.71;78.32;99953.36;1632243;87;20160;-86
2021/06/29 04:40:31;;;;;;;;;;;;;;;16.75;78.71;99960.09;1641170;86;20145;-85
2021/06/29 04:42:57;;;;;;;;;;;;;;;16.79;78.55;99950.78;1652009;86;20135;-86
2021/06/29 04:45:26;;;;;;;;;;;;;;;16.85;78.78;99943.98;1651401;86;20151;-86
2021/06/29 04:47:51;;;;;;;;;;;;;;;16.91;79.04;99940.64;1641951;86;20138;-86
2021/06/29 04:50:17;;;;;;;;;;;;;;;16.96;79.42;99941.51;1640241;86;20185;-86
2021/06/29 04:52:44;;;;;;;;;;;;;;;17.01;79.61;99937.84;1633618;87;20144;-85
2021/06/29 04:55:10;;;;;;;;;;;;;;;17.05;79.57;99941.88;1629878;86;20165;-85
2021/06/29 04:57:36;;;;;;;;;;;;;;;17.11;79.90;99945.23;1640476;87;20133;-86
2021/06/29 05:00:07;;;;;;;;;;;;;;;17.17;79.92;99943.22;1638935;87;20431;-86
2021/06/29 05:02:32;;;;;;;;;;;;;;;17.23;80.21;99940.41;1639580;86;20161;-86
2021/06/29 05:04:58;;;;;;;;;;;;;;;17.29;80.11;99944.59;1637700;87;20153;-85
2021/06/29 05:07:24;;;;;;;;;;;;;;;17.35;80.21;99945.27;1639822;87;20137;-85
2021/06/29 05:09:49;;;;;;;;;;;;;;;17.43;80.22;99945.77;1639332;87;20439;-86
2021/06/29 05:12:15;;;;;;;;;;;;;;;17.50;80.18;99943.27;1640853;87;20134;-85
2021/06/29 05:14:41;;;;;;;;;;;;;;;17.56;80.04;99945.28;1640232;87;20106;-86
2021/06/29 05:17:07;;;;;;;;;;;;;;;17.65;80.13;99946.13;1639252;87;20171;-86
2021/06/29 05:19:33;;;;;;;;;;;;;;;17.71;80.19;99935.62;1641029;87;20395;-85
2021/06/29 05:21:59;;;;;;;;;;;;;;;17.80;80.19;99929.80;1639319;87;20155;-85
2021/06/29 05:24:24;;;;;;;;;;;;;;;17.88;80.17;99931.14;1641244;87;20178;-85
2021/06/29 05:26:50;;;;;;;;;;;;;;;17.98;80.50;99934.47;1638967;87;21266;-86
2021/06/29 05:29:16;;;;;;;;;;;;;;;18.06;80.42;99933.61;1641344;87;20143;-85
2021/06/29 05:31:42;;;;;;;;;;;;;;;18.16;80.24;99934.77;1639649;86;20133;-86
2021/06/29 05:34:08;;;;;;;;;;;;;;;18.24;79.98;99925.42;1641076;87;20149;-86
2021/06/29 05:36:34;;;;;;;;;;;;;;;18.34;80.13;99925.23;1640037;87;20154;-85
2021/06/29 05:38:59;;;;;;;;;;;;;;;18.44;80.24;99921.86;1639805;86;20126;-86
2021/06/29 05:41:25;;;;;;;;;;;;;;;18.54;80.01;99920.33;1639878;87;20185;-86
2021/06/29 05:43:51;;;;;;;;;;;;;;;18.64;79.87;99921.77;1639811;87;20134;-84
2021/06/29 05:46:17;;;;;;;;;;;;;;;18.74;80.13;99914.41;1639357;87;20147;-86
2021/06/29 05:48:42;;;;;;;;;;;;;;;18.85;79.56;99913.19;1639799;87;20102;-85
2021/06/29 05:51:08;;;;;;;;;;;;;;;18.94;79.66;99913.47;1639168;87;20409;-86
2021/06/29 05:53:34;;;;;;;;;;;;;;;19.05;79.77;99910.93;1639344;87;20150;-86
2021/06/29 05:56:00;;;;;;;;;;;;;;;19.14;79.72;99901.83;1638067;87;20167;-86
2021/06/29 05:58:26;;;;;;;;;;;;;;;19.26;79.31;99896.91;1638685;87;20158;-87
2021/06/29 06:00:52;;;;;;;;;;;;;;;19.38;79.24;99895.97;1639905;87;20161;-86
2021/06/29 06:03:18;;;;;;;;;;;;;;;19.50;79.44;99892.38;1638401;86;20118;-86
2021/06/29 06:05:44;;;;;;;;;;;;;;;19.60;78.87;99887.09;1639011;87;20142;-86
2021/06/29 06:08:10;;;;;;;;;;;;;;;19.72;79.05;99880.85;1639357;87;20114;-87
2021/06/29 06:10:36;;;;;;;;;;;;;;;19.83;78.92;99880.40;1638452;87;20450;-86
2021/06/29 06:13:02;;;;;;;;;;;;;;;19.91;78.81;99878.17;1640628;87;20436;-86
2021/06/29 06:15:28;;;;;;;;;;;;;;;20.06;78.73;99881.67;1640903;86;20174;-86
2021/06/29 06:17:53;;;;;;;;;;;;;;;20.17;78.49;99882.23;1639277;86;20133;-87
2021/06/29 06:20:19;;;;;;;;;;;;;;;20.29;78.61;99889.63;1639851;87;20161;-87
2021/06/29 06:22:46;;;;;;;;;;;;;;;20.40;77.95;99893.71;1640774;87;20133;-88
2021/06/29 06:25:11;;;;;;;;;;;;;;;20.51;77.49;99895.94;1640382;86;20271;-87
2021/06/29 06:27:37;;;;;;;;;;;;;;;20.63;77.01;99904.84;1639313;87;20102;-86
2021/06/29 06:30:05;;;;;;;;;;;;;;;20.73;76.34;99905.38;1639854;87;20117;-87
2021/06/29 06:32:31;;;;;;;;;;;;;;;20.83;76.07;99907.28;1639156;86;20431;-86
2021/06/29 06:34:57;;;;;;;;;;;;;;;20.93;75.34;99903.78;1637860;87;20137;-86
2021/06/29 06:37:22;;;;;;;;;;;;;;;21.03;75.47;99900.80;1640511;87;20147;-87
2021/06/29 06:39:49;;;;;;;;;;;;;;;21.10;75.88;99893.66;1638367;87;20133;-87
2021/06/29 06:42:16;;;;;;;;;;;;;;;21.18;75.39;99888.15;1639492;87;20138;-86
2021/06/29 06:44:42;;;;;;;;;;;;;;;21.26;74.74;99896.61;1640865;87;20444;-87
2021/06/29 06:47:08;;;;;;;;;;;;;;;21.33;75.04;99900.19;1639051;87;20153;-87
2021/06/29 06:49:34;;;;;;;;;;;;;;;21.41;74.24;99900.59;1639434;87;20145;-88
2021/06/29 06:52:00;;;;;;;;;;;;;;;21.49;74.54;99903.16;1638219;87;20145;-88
2021/06/29 06:54:26;;;;;;;;;;;;;;;21.59;74.03;99909.03;1640546;87;20136;-89
2021/06/29 06:56:53;;;;;;;;;;;;;;;21.69;74.12;99907.36;1638454;87;20444;-87
2021/06/29 06:59:20;;;;;;;;;;;;;;;21.78;74.06;99910.20;1639373;87;20150;-89
2021/06/29 07:01:46;;;;;;;;;;;;;;;21.88;73.30;99915.23;1638521;87;20125;-89
2021/06/29 07:04:13;;;;;;;;;;;;;;;21.96;72.98;99914.59;1640362;87;20185;-88
2021/06/29 07:06:38;;;;;;;;;;;;;;;22.06;73.62;99918.80;1638885;87;20152;-88
2021/06/29 07:09:05;;;;;;;;;;;;;;;22.15;73.11;99925.69;1638849;87;20105;-89
2021/06/29 07:11:30;;;;;;;;;;;;;;;22.26;73.35;99926.50;1637701;87;20106;-88
2021/06/29 07:13:56;;;;;;;;;;;;;;;22.36;72.31;99918.91;1639596;87;20121;-88
2021/06/29 07:16:23;;;;;;;;;;;;;;;22.46;72.11;99918.03;1642781;87;20145;-88
2021/06/29 07:18:49;;;;;;;;;;;;;;;22.53;72.01;99915.90;1639814;87;20160;-88
2021/06/29 07:21:14;;;;;;;;;;;;;;;22.61;71.91;99917.09;1639833;87;20150;-89
2021/06/29 07:23:40;;;;;;;;;;;;;;;22.69;71.57;99915.05;1639244;87;20153;-89
2021/06/29 07:26:06;;;;;;;;;;;;;;;22.78;70.97;99911.68;1640160;87;20158;-88
2021/06/29 07:28:31;;;;;;;;;;;;;;;22.89;70.66;99912.43;1639692;87;20129;-88
2021/06/29 07:30:57;;;;;;;;;;;;;;;23.00;70.55;99904.34;1638994;87;20114;-88
2021/06/29 07:33:23;;;;;;;;;;;;;;;23.10;70.62;99902.59;1640118;87;20184;-87
2021/06/29 07:35:49;;;;;;;;;;;;;;;23.20;70.40;99902.20;1639144;86;20163;-87
2021/06/29 07:38:14;;;;;;;;;;;;;;;23.29;69.93;99903.15;1632257;87;20110;-87
2021/06/29 07:40:40;;;;;;;;;;;;;;;23.38;69.99;99895.72;1613100;89;20407;-88
2021/06/29 07:43:06;;;;;;;;;;;;;;;23.46;69.26;99891.50;1613396;88;20140;-87
2021/06/29 07:45:32;;;;;;;;;;;;;;;23.53;69.09;99891.50;1609507;88;20097;-87
2021/06/29 07:48:03;;;;;;;;;;;;;;;23.62;69.79;99893.75;1629717;87;20127;-86
2021/06/29 07:50:30;;;;;;;;;;;;;;;23.70;69.39;99884.69;1639695;87;20126;-88
2021/06/29 07:52:57;;;;;;;;;;;;;;;23.76;68.87;99881.17;1639033;87;20133;-87
2021/06/29 07:55:25;;;;;;;;;;;;;;;23.84;68.73;99892.24;1640753;87;20113;-88
2021/06/29 07:57:51;;;;;;;;;;;;;;;23.93;68.20;99887.48;1640118;86;20151;-88
2021/06/29 08:00:17;;;;;;;;;;;;;;;23.99;67.88;99888.82;1641227;86;20102;-87
2021/06/29 08:02:43;;;;;;;;;;;;;;;24.08;67.05;99890.76;1639314;87;20145;-89
2021/06/29 08:05:09;;;;;;;;;;;;;;;24.14;66.48;99893.96;1638825;86;20405;-89
2021/06/29 08:07:35;;;;;;;;;;;;;;;24.21;65.78;99892.59;1639903;87;20138;-89
2021/06/29 08:10:01;;;;;;;;;;;;;;;24.26;66.16;99899.02;1639458;86;20110;-89
2021/06/29 08:12:27;;;;;;;;;;;;;;;24.32;66.19;99893.31;1639632;87;20412;-89
2021/06/29 08:14:53;;;;;;;;;;;;;;;24.41;65.50;99886.66;1639500;86;20127;-89
2021/06/29 08:17:18;;;;;;;;;;;;;;;24.52;65.10;99883.84;1638948;86;20110;-89
2021/06/29 08:19:44;;;;;;;;;;;;;;;24.62;65.49;99883.40;1639381;86;20110;-90
2021/06/29 08:22:10;;;;;;;;;;;;;;;24.75;64.51;99873.38;1638914;86;20161;-89
2021/06/29 08:24:36;;;;;;;;;;;;;;;24.91;63.48;99877.95;1640906;87;20444;-89
2021/06/29 08:27:01;;;;;;;;;;;;;;;25.06;63.95;99877.14;1641384;86;20133;-88
2021/06/29 08:29:27;;;;;;;;;;;;;;;25.19;64.17;99879.79;1641020;87;20099;-89
2021/06/29 08:31:53;;;;;;;;;;;;;;;25.32;62.84;99872.13;1639737;87;20138;-89
2021/06/29 08:34:18;;;;;;;;;;;;;;;25.41;62.50;99868.65;1640704;86;20435;-90
2021/06/29 08:36:44;;;;;;;;;;;;;;;25.47;61.51;99869.13;1640596;86;20169;-88
2021/06/29 08:39:11;;;;;;;;;;;;;;;25.55;60.59;99874.23;1639425;86;20194;-89
2021/06/29 08:41:43;;;;;;;;;;;;;;;25.64;60.14;99872.92;1640253;87;20134;-89
2021/06/29 08:44:09;;;;;;;;;;;;;;;25.74;60.56;99874.59;1639385;86;20162;-88
2021/06/29 08:46:35;;;;;;;;;;;;;;;25.85;60.57;99867.66;1639276;87;20419;-88
2021/06/29 08:49:02;;;;;;;;;;;;;;;25.94;60.45;99865.52;1638715;87;20141;-87
2021/06/29 08:51:29;;;;;;;;;;;;;;;26.03;59.69;99867.38;1641096;87;20396;-89
2021/06/29 08:53:55;;;;;;;;;;;;;;;26.09;58.86;99867.31;1641726;86;20102;-88
2021/06/29 08:56:21;;;;;;;;;;;;;;;26.15;57.94;99866.95;1640078;86;20162;-88
2021/06/29 08:58:47;;;;;;;;;;;;;;;26.18;57.10;99868.67;1641049;87;20154;-89
2021/06/29 09:01:14;;;;;;;;;;;;;;;26.18;56.84;99872.73;1639510;87;20121;-89
2021/06/29 09:03:40;;;;;;;;;;;;;;;26.17;57.10;99871.09;1638959;87;20094;-90
2021/06/29 09:06:07;;;;;;;;;;;;;;;26.18;55.66;99863.27;1638942;86;20138;-88
2021/06/29 09:08:38;;;;;;;;;;;;;;;26.21;55.42;99859.30;1639557;86;20117;-89
2021/06/29 09:11:17;;;;;;;;;;;;;;;26.24;55.65;99856.67;1640536;86;20103;-89
2021/06/29 09:14:03;;;;;;;;;;;;;;;26.29;55.39;99851.40;1640000;86;20145;-89
2021/06/29 09:16:28;;;;;;;;;;;;;;;26.34;55.01;99846.97;1639589;87;20121;-89
2021/06/29 09:18:54;;;;;;;;;;;;;;;26.41;55.99;99845.02;1639485;87;20133;-88
2021/06/29 09:21:22;;;;;;;;;;;;;;;26.45;53.86;99844.03;1621807;86;20144;-89
2021/06/29 09:23:49;;;;;;;;;;;;;;;26.47;53.65;99841.12;1639990;87;20129;-89
2021/06/29 09:26:17;;;;;;;;;;;;;;;26.47;53.34;99844.64;1638857;86;20424;-89
2021/06/29 09:28:49;;;;;;;;;;;;;;;26.47;53.02;99837.88;1630041;87;20137;-89
2021/06/29 09:31:16;;;;;;;;;;;;;;;26.49;53.48;99837.17;1627149;87;20102;-90
2021/06/29 09:33:53;;;;;;;;;;;;;;;26.51;52.51;99836.39;1637965;87;20142;-89
2021/06/29 09:36:21;;;;;;;;;;;;;;;26.53;52.53;99834.83;1640642;87;20413;-89
2021/06/29 09:38:49;;;;;;;;;;;;;;;26.52;51.90;99828.59;1639957;87;20127;-89
2021/06/29 09:41:21;;;;;;;;;;;;;;;26.52;52.48;99817.78;1638901;86;20157;-89
2021/06/29 09:43:49;;;;;;;;;;;;;;;26.54;52.41;99813.48;1640466;85;20139;-89
2021/06/29 09:46:16;;;;;;;;;;;;;;;26.54;52.34;99806.72;1640910;86;20129;-89
2021/06/29 09:48:52;;;;;;;;;;;;;;;26.57;52.68;99805.73;1632242;88;20115;-89
2021/06/29 09:51:26;;;;;;;;;;;;;;;26.60;51.52;99805.80;1635307;87;20142;-89
2021/06/29 09:53:53;;;;;;;;;;;;;;;26.61;52.32;99801.50;1636802;86;20199;-89
2021/06/29 09:56:23;;;;;;;;;;;;;;;26.65;52.81;99797.81;1638053;86;20106;-89
2021/06/29 09:58:52;;;;;;;;;;;;;;;26.70;52.12;99795.78;1639589;86;20451;-89
2021/06/29 10:01:20;;;;;;;;;;;;;;;26.70;51.64;99784.43;1638224;87;20114;-88
2021/06/29 10:03:50;;;;;;;;;;;;;;;26.71;51.85;99775.25;1638038;87;20125;-88
2021/06/29 10:06:17;;;;;;;;;;;;;;;26.75;51.81;99775.61;1640198;87;20146;-88
2021/06/29 10:08:45;;;;;;;;;;;;;;;26.76;51.45;99762.39;1636328;87;20541;-89
2021/06/29 10:11:14;;;;;;;;;;;;;;;26.75;51.07;99754.81;1632140;87;20119;-89
2021/06/29 10:13:44;;;;;;;;;;;;;;;26.75;51.27;99746.69;1640847;87;20097;-90
2021/06/29 10:16:12;;;;;;;;;;;;;;;26.77;51.13;99748.63;1632280;87;20108;-89
2021/06/29 10:18:43;;;;;;;;;;;;;;;26.80;51.69;99744.10;1618841;88;20422;-88
2021/06/29 10:21:41;;;;;;;;;;;;;;;26.86;50.08;99745.88;1612637;89;20144;-89
2021/06/29 10:23:42;;;;;;;;;;;;;;;26.89;49.91;99741.36;1599405;89;20147;-88
2021/06/29 10:26:09;;;;;;;;;;;;;;;26.93;50.01;99752.55;1611399;88;20116;-89
2021/06/29 10:28:35;;;;;;;;;;;;;;;26.95;49.42;99759.92;1611793;88;20168;-88
2021/06/29 10:31:01;;;;;;;;;;;;;;;27.00;49.65;99760.56;1632766;86;20130;-89
2021/06/29 10:33:27;;;;;;;;;;;;;;;27.04;49.55;99759.03;1635962;86;20481;-88
2021/06/29 10:35:54;;;;;;;;;;;;;;;27.08;49.74;99754.30;1626686;86;20118;-89
2021/06/29 10:38:20;;;;;;;;;;;;;;;27.16;49.33;99765.33;1637060;86;20689;-89
2021/06/29 10:40:51;;;;;;;;;;;;;;;27.21;48.58;99764.08;1626349;87;20160;-89
2021/06/29 10:43:17;;;;;;;;;;;;;;;27.26;49.05;99768.81;1614451;86;20152;-89
2021/06/29 10:45:43;;;;;;;;;;;;;;;27.28;48.83;99764.00;1639674;87;20134;-89
2021/06/29 10:48:18;;;;;;;;;;;;;;;27.30;48.62;99762.69;1631963;87;20137;-89
2021/06/29 10:50:45;;;;;;;;;;;;;;;27.29;47.71;99763.75;1630600;86;20279;-89
2021/06/29 10:53:31;;;;;;;;;;;;;;;27.28;47.84;99761.30;1626848;86;20140;-89
2021/06/29 10:55:57;;;;;;;;;;;;;;;27.28;48.00;99762.11;1607305;88;20138;-89
2021/06/29 10:58:38;;;;;;;;;;;;;;;27.28;47.56;99762.11;1637669;86;20181;-88
2021/06/29 11:01:26;;;;;;;;;;;;;;;27.27;47.10;99759.09;1638291;87;20134;-89
2021/06/29 11:03:59;;;;;;;;;;;;;;;27.28;47.54;99758.59;1607057;88;20460;-88
2021/06/29 11:06:43;;;;;;;;;;;;;;;27.27;47.51;99754.20;1633974;87;20137;-89
2021/06/29 11:09:11;;;;;;;;;;;;;;;27.26;46.99;99757.45;1631917;86;20142;-89
2021/06/29 11:11:37;;;;;;;;;;;;;;;27.25;46.66;99744.16;1641930;86;20165;-89
2021/06/29 11:14:03;;;;;;;;;;;;;;;27.22;47.16;99748.16;1636888;86;20181;-89
2021/06/29 11:16:56;;;;;;;;;;;;;;;27.21;46.71;99744.30;1622719;87;20134;-89
2021/06/29 11:19:20;;;;;;;;;;;;;;;27.21;46.67;99744.30;1635024;87;20578;-90
2021/06/29 11:21:46;;;;;;;;;;;;;;;27.19;46.38;99741.84;1628186;88;20146;-89
2021/06/29 11:24:37;;;;;;;;;;;;;;;27.20;46.64;99743.48;1629002;87;20149;-89
2021/06/29 11:27:05;;;;;;;;;;;;;;;27.25;47.14;99734.14;1636596;87;20145;-89
2021/06/29 11:29:43;;;;;;;;;;;;;;;27.38;46.87;99730.38;1631336;87;20133;-88
2021/06/29 11:32:28;;;;;;;;;;;;;;;27.51;46.63;99725.22;1630001;88;20440;-89
2021/06/29 11:34:55;;;;;;;;;;;;;;;27.60;46.94;99716.50;1634688;87;20952;-88
2021/06/29 11:37:20;;;;;;;;;;;;;;;27.74;46.98;99713.02;1629963;87;20506;-88
2021/06/29 11:39:57;;;;;;;;;;;;;;;27.88;46.04;99715.50;1633316;87;20197;-88
2021/06/29 11:42:24;;;;;;;;;;;;;;;27.94;44.83;99715.36;1630246;87;20145;-87
2021/06/29 11:44:52;;;;;;;;;;;;;;;28.02;45.05;99714.16;1629961;87;20169;-86
2021/06/29 11:47:21;;;;;;;;;;;;;;;28.15;44.31;99715.77;1631850;86;20498;-87
2021/06/29 11:50:00;;;;;;;;;;;;;;;28.27;42.69;99705.16;1638666;87;20165;-87
2021/06/29 11:52:32;;;;;;;;;;;;;;;28.37;44.60;99703.72;1635281;86;20141;-87
2021/06/29 11:55:05;;;;;;;;;;;;;;;28.54;42.66;99715.98;1640117;87;20181;-87
2021/06/29 11:57:49;;;;;;;;;;;;;;;28.64;42.28;99705.31;1641873;86;20465;-85
2021/06/29 12:00:34;;;;;;;;;;;;;;;28.63;41.88;99707.20;1634322;87;20147;-84
2021/06/29 12:03:05;;;;;;;;;;;;;;;28.57;41.84;99708.18;1638258;87;20118;-86
2021/06/29 12:05:33;;;;;;;;;;;;;;;28.56;42.20;99705.69;1629505;87;20138;-85
2021/06/29 12:08:04;;;;;;;;;;;;;;;28.58;41.81;99696.78;1636765;87;20169;-85
2021/06/29 12:10:33;;;;;;;;;;;;;;;28.61;41.91;99694.41;1632675;87;20465;-85
2021/06/29 12:13:03;;;;;;;;;;;;;;;28.65;41.82;99690.13;1632396;87;20451;-84
2021/06/29 12:15:32;;;;;;;;;;;;;;;28.70;41.55;99680.72;1629179;88;20150;-85
2021/06/29 12:18:13;;;;;;;;;;;;;;;28.74;41.47;99678.34;1630510;87;20561;-85
2021/06/29 12:20:48;;;;;;;;;;;;;;;28.75;41.52;99673.19;1634968;87;20206;-85
2021/06/29 12:23:14;;;;;;;;;;;;;;;28.78;41.69;99664.55;1628150;87;20141;-85
2021/06/29 12:25:43;;;;;;;;;;;;;;;28.86;40.92;99648.38;1630797;87;20150;-86
2021/06/29 12:28:12;;;;;;;;;;;;;;;29.07;40.96;99661.23;1632343;87;20133;-84
2021/06/29 12:30:53;;;;;;;;;;;;;;;29.26;41.08;99654.18;1634417;86;20149;-85
2021/06/29 12:33:24;;;;;;;;;;;;;;;29.42;40.37;99657.39;1638199;87;20134;-85
2021/06/29 12:35:53;;;;;;;;;;;;;;;29.54;39.79;99650.47;1629600;87;20478;-84
2021/06/29 12:38:24;;;;;;;;;;;;;;;29.60;39.22;99653.56;1637347;87;20159;-85
2021/06/29 12:40:59;;;;;;;;;;;;;;;29.62;39.11;99647.35;1631379;87;20130;-85
2021/06/29 12:43:28;;;;;;;;;;;;;;;29.70;39.81;99647.44;1629714;88;20142;-85
2021/06/29 12:45:54;;;;;;;;;;;;;;;29.76;39.14;99643.16;1607793;87;20161;-84
2021/06/29 12:48:21;;;;;;;;;;;;;;;29.82;39.04;99638.62;1635553;87;20141;-86
2021/06/29 12:50:59;;;;;;;;;;;;;;;29.86;38.91;99634.30;1634124;87;20125;-86
2021/06/29 12:53:26;;;;;;;;;;;;;;;29.94;39.15;99628.40;1628899;87;20443;-86